Weather at Aribinda Airport

Public forecast

Using degrees Celsius for public forecast. Weather courtesy of forecast.io.

Closest aviation weather report (METAR) to Aribinda Airport

Closest report is Ouagadougou Airport, 117.8 nm (218.2 km) SSW.

2024/07/20 16:00 (retrieved 25 minutes ago)

DFFD 201600Z 21010KT 9999 FEW020 29/24 Q1009 NOSIG

Closest aviation forecast (TAF) to Aribinda Airport

Closest forecast is Ouagadougou Airport, 117.8 nm (218.2 km) SSW.

2024/07/20 12:00 (retrieved 4 hours ago)

TAF DFFD 201100Z 2012/2118 22008KT 9999 SCT020 PROB30 TEMPO 2012/2022 4000 TS SHRA SCT020 FEW036CB